Time;durP1;ratioP1;P1;durP2;ratioP2;P2;SDS_P1;SDS_P2;PMS_P1;PMS_P2;Temp;Humidity;BMP_temperature;BMP_pressure;BME280_temperature;BME280_humidity;BME280_pressure;Samples;Min_cycle;Max_cycle;Signal;HPM_P1;HPM_P2
2023/08/13 00:01:54;;;;;;;2.00;1.90;;;16.80;99.90;;;;;;4955497;29;20204;-73
2023/08/13 00:04:20;;;;;;;2.05;1.85;;;16.70;99.90;;;;;;4955365;29;20659;-73
2023/08/13 00:06:47;;;;;;;1.83;1.73;;;16.70;99.90;;;;;;4955462;29;20215;-73
2023/08/13 00:09:14;;;;;;;2.38;2.15;;;16.60;99.90;;;;;;4955427;29;20220;-73
2023/08/13 00:11:42;;;;;;;2.10;2.00;;;16.60;99.90;;;;;;4955456;29;20208;-73
2023/08/13 00:14:09;;;;;;;2.33;2.17;;;16.60;99.90;;;;;;4955083;29;20707;-73
2023/08/13 00:16:35;;;;;;;1.90;1.80;;;16.60;99.90;;;;;;4955568;29;20219;-73
2023/08/13 00:19:02;;;;;;;2.08;1.98;;;16.60;99.90;;;;;;4957104;29;20207;-74
2023/08/13 00:21:29;;;;;;;1.80;1.80;;;16.60;99.90;;;;;;4959107;29;20219;-74
2023/08/13 00:23:55;;;;;;;2.15;2.05;;;16.60;99.90;;;;;;4962193;29;20232;-73
2023/08/13 00:26:22;;;;;;;2.08;1.98;;;16.50;99.90;;;;;;4960896;29;20211;-73
2023/08/13 00:28:50;;;;;;;2.08;1.98;;;16.50;99.90;;;;;;4961315;29;20283;-74
2023/08/13 00:31:17;;;;;;;2.03;1.92;;;16.50;99.90;;;;;;4961281;29;20203;-74
2023/08/13 00:33:44;;;;;;;2.20;2.10;;;16.40;99.90;;;;;;4961695;29;20231;-74
2023/08/13 00:36:11;;;;;;;2.00;2.00;;;16.40;99.90;;;;;;4963133;29;20263;-75
2023/08/13 00:38:37;;;;;;;1.80;1.80;;;16.40;99.90;;;;;;4962121;29;20215;-75
2023/08/13 00:41:04;;;;;;;2.03;1.92;;;16.40;99.90;;;;;;4962275;29;20200;-75
2023/08/13 00:43:31;;;;;;;1.98;1.98;;;;;;;;;;4962122;29;20240;-75
2023/08/13 00:46:00;;;;;;;1.95;1.95;;;;;;;;;;4961714;29;20208;-75
2023/08/13 00:48:27;;;;;;;1.98;1.88;;;;;;;;;;4963137;28;20220;-73
2023/08/13 00:50:55;;;;;;;1.92;1.92;;;;;;;;;;4966052;29;20200;-72
2023/08/13 00:53:22;;;;;;;1.80;1.80;;;;;;;;;;4965821;29;20220;-73
2023/08/13 00:55:49;;;;;;;2.20;2.10;;;;;;;;;;4975752;29;20210;-73
2023/08/13 00:58:16;;;;;;;1.92;1.83;;;;;;;;;;4972428;29;20204;-73
2023/08/13 01:00:44;;;;;;;1.50;1.50;;;;;;;;;;4967567;29;20208;-73
2023/08/13 01:03:12;;;;;;;2.28;2.10;;;;;;;;;;4967978;28;20335;-73
2023/08/13 01:05:43;;;;;;;2.33;2.22;;;;;;;;;;4965266;29;20216;-73
2023/08/13 01:08:13;;;;;;;1.80;1.75;;;;;;;;;;4966225;29;20230;-73
2023/08/13 01:10:43;;;;;;;2.03;1.70;;;;;;;;;;4966959;29;20230;-73
2023/08/13 01:13:13;;;;;;;2.28;2.05;;;;;;;;;;4965463;29;20742;-73
2023/08/13 01:15:41;;;;;;;1.80;1.80;;;;;;;;;;4966629;29;20553;-73
2023/08/13 01:18:09;;;;;;;1.77;1.70;;;;;;;;;;4969575;29;20204;-73
2023/08/13 01:20:38;;;;;;;2.92;2.72;;;;;;;;;;4966365;29;20627;-73
2023/08/13 01:23:06;;;;;;;1.80;1.80;;;;;;;;;;4964333;29;20224;-73
2023/08/13 01:25:34;;;;;;;1.77;1.77;;;;;;;;;;4965404;29;20206;-73
2023/08/13 01:28:06;;;;;;;2.42;2.22;;;;;;;;;;4965060;29;20239;-73
2023/08/13 01:30:38;;;;;;;2.17;2.08;;;;;;;;;;4964907;29;20575;-73
2023/08/13 01:33:07;;;;;;;2.10;2.10;;;;;;;;;;4964906;29;20699;-73
2023/08/13 01:35:34;;;;;;;2.45;2.35;;;;;;;;;;4965740;29;20204;-74
2023/08/13 01:38:02;;;;;;;1.67;1.67;;;;;;;;;;4964363;29;20200;-74
2023/08/13 01:40:31;;;;;;;2.15;2.05;;;;;;;;;;4964834;29;20206;-74
2023/08/13 01:42:58;;;;;;;1.50;1.50;;;;;;;;;;4963631;29;20287;-74
2023/08/13 01:45:25;;;;;;;1.77;1.67;;;;;;;;;;4963052;29;20668;-74
2023/08/13 01:47:52;;;;;;;1.80;1.80;;;;;;;;;;4963763;29;20219;-74
2023/08/13 01:50:19;;;;;;;1.67;1.67;;;;;;;;;;4964386;29;20215;-74
2023/08/13 01:52:46;;;;;;;2.03;1.92;;;;;;;;;;4964163;29;20224;-75
2023/08/13 01:55:13;;;;;;;2.50;2.40;;;;;;;;;;4965622;29;20208;-74
2023/08/13 01:57:42;;;;;;;1.80;1.80;;;;;;;;;;4966074;29;20203;-75
2023/08/13 02:00:10;;;;;;;2.13;2.03;;;;;;;;;;4964636;28;20691;-73
2023/08/13 02:02:37;;;;;;;2.00;1.90;;;;;;;;;;4965708;28;20228;-72
2023/08/13 02:05:04;;;;;;;1.80;1.70;;;;;;;;;;4967288;29;20204;-71
2023/08/13 02:07:31;;;;;;;2.20;2.10;;;;;;;;;;4967426;29;20212;-71
2023/08/13 02:09:59;;;;;;;1.80;1.80;;;;;;;;;;4966235;29;20226;-71
2023/08/13 02:12:26;;;;;;;2.30;2.20;;;;;;;;;;4967491;29;20228;-71
2023/08/13 02:14:54;;;;;;;2.08;1.98;;;;;;;;;;4966661;29;20211;-71
2023/08/13 02:17:21;;;;;;;2.08;1.98;;;;;;;;;;4967449;29;20223;-72
2023/08/13 02:19:48;;;;;;;1.90;1.90;;;;;;;;;;4966894;29;20204;-72
2023/08/13 02:22:15;;;;;;;2.08;1.98;;;;;;;;;;4966657;29;20239;-71
2023/08/13 02:24:42;;;;;;;1.80;1.80;;;;;;;;;;4958093;29;20208;-70
2023/08/13 02:27:09;;;;;;;2.00;1.90;;;;;;;;;;4958362;29;20208;-75
2023/08/13 02:29:36;;;;;;;1.80;1.80;;;;;;;;;;4957125;29;20235;-71
2023/08/13 02:32:05;;;;;;;1.73;1.73;;;;;;;;;;4957182;29;20211;-71
2023/08/13 02:34:33;;;;;;;2.58;1.85;;;;;;;;;;4957336;29;20203;-71
2023/08/13 02:37:00;;;;;;;1.85;1.85;;;;;;;;;;4957199;29;20208;-71
2023/08/13 02:39:27;;;;;;;1.80;1.80;;;;;;;;;;4957048;29;20288;-71
2023/08/13 02:41:54;;;;;;;1.80;1.80;;;;;;;;;;4957005;29;20235;-71
2023/08/13 02:44:22;;;;;;;1.88;1.83;;;;;;;;;;4957081;29;20215;-71
2023/08/13 02:46:49;;;;;;;1.83;1.73;;;;;;;;;;4956903;29;20243;-70
2023/08/13 02:49:18;;;;;;;2.00;2.00;;;;;;;;;;4956753;29;20224;-70
2023/08/13 02:51:45;;;;;;;1.60;1.60;;;;;;;;;;4957021;29;20215;-71
2023/08/13 02:54:12;;;;;;;1.80;1.80;;;;;;;;;;4956945;29;20227;-70
2023/08/13 02:56:39;;;;;;;1.98;1.98;;;;;;;;;;4956858;29;20289;-71
2023/08/13 02:59:06;;;;;;;1.80;1.80;;;;;;;;;;4956296;29;20200;-71
2023/08/13 03:01:33;;;;;;;1.90;1.80;;;;;;;;;;4956558;29;20215;-71
2023/08/13 03:04:03;;;;;;;1.98;1.90;;;;;;;;;;4956041;29;20763;-71
2023/08/13 03:06:31;;;;;;;2.10;2.00;;;;;;;;;;4956483;29;20294;-71
2023/08/13 03:08:58;;;;;;;1.40;1.40;;;;;;;;;;4956320;29;20216;-71
2023/08/13 03:11:25;;;;;;;1.50;1.50;;;;;;;;;;4956003;28;20208;-71
2023/08/13 03:13:52;;;;;;;1.80;1.80;;;;;;;;;;4956169;29;20316;-72
2023/08/13 03:16:20;;;;;;;1.80;1.70;;;;;;;;;;4956345;29;20200;-72
2023/08/13 03:18:47;;;;;;;2.05;1.95;;;;;;;;;;4956204;29;20289;-71
2023/08/13 03:21:14;;;;;;;1.80;1.80;;;;;;;;;;4956142;29;20207;-71
2023/08/13 03:23:42;;;;;;;1.60;1.60;;;;;;;;;;4956073;29;20234;-71
2023/08/13 03:26:10;;;;;;;1.88;1.88;;;;;;;;;;4956111;29;20207;-71
2023/08/13 03:28:37;;;;;;;1.65;1.65;;;;;;;;;;4956010;29;20224;-71
2023/08/13 03:31:04;;;;;;;1.50;1.50;;;;;;;;;;4956005;29;20208;-71
2023/08/13 03:33:31;;;;;;;1.92;1.80;;;;;;;;;;4955926;29;20235;-71
2023/08/13 03:35:58;;;;;;;1.45;1.45;;;;;;;;;;4955913;29;20219;-71
2023/08/13 03:38:25;;;;;;;1.95;1.55;;;;;;;;;;4955895;29;20564;-71
2023/08/13 03:40:57;;;;;;;2.15;1.92;;;;;;;;;;4955591;29;20698;-71
2023/08/13 03:43:24;;;;;;;1.52;1.50;;;;;;;;;;4955828;29;20224;-72
2023/08/13 03:45:51;;;;;;;1.52;1.52;;;;;;;;;;4955885;29;20208;-71
2023/08/13 03:48:18;;;;;;;1.50;1.50;;;;;;;;;;4955371;29;20691;-71
2023/08/13 03:50:46;;;;;;;1.55;1.55;;;;;;;;;;4955698;29;20219;-71
2023/08/13 03:53:13;;;;;;;1.88;1.77;;;;;;;;;;4955627;29;20231;-71
2023/08/13 03:55:40;;;;;;;1.70;1.70;;;;;;;;;;4955666;29;20208;-71
2023/08/13 03:58:08;;;;;;;2.50;2.40;;;;;;;;;;4955649;29;20204;-71
2023/08/13 04:00:35;;;;;;;1.83;1.83;;;;;;;;;;4955618;29;20208;-71
2023/08/13 04:03:03;;;;;;;1.83;1.73;;;;;;;;;;4955208;29;20236;-71
2023/08/13 04:05:30;;;;;;;2.03;2.03;;;;;;;;;;4955455;29;20204;-71
2023/08/13 04:07:58;;;;;;;2.05;1.95;;;;;;;;;;4955193;29;20664;-71
2023/08/13 04:10:25;;;;;;;1.65;1.65;;;;;;;;;;4955448;29;20236;-73
2023/08/13 04:12:53;;;;;;;1.90;1.90;;;;;;;;;;4955467;29;20307;-73
2023/08/13 04:15:21;;;;;;;1.75;1.75;;;;;;;;;;4955408;29;20208;-73
2023/08/13 04:17:49;;;;;;;1.80;1.80;;;;;;;;;;4955515;29;20215;-73
2023/08/13 04:20:16;;;;;;;1.70;1.70;;;;;;;;;;4955530;29;20226;-74
2023/08/13 04:22:43;;;;;;;1.70;1.70;;;;;;;;;;4955497;28;20224;-74
2023/08/13 04:25:10;;;;;;;1.80;1.80;;;;;;;;;;4958936;29;20204;-74
2023/08/13 04:27:37;;;;;;;1.73;1.70;;;;;;;;;;4959916;29;20206;-74
2023/08/13 04:30:05;;;;;;;1.70;1.70;;;;;;;;;;4959561;29;20219;-74
2023/08/13 04:32:33;;;;;;;1.45;1.45;;;;;;;;;;4959399;29;20224;-74
2023/08/13 04:35:00;;;;;;;1.58;1.58;;;;;;;;;;4959496;29;20211;-74
2023/08/13 04:37:27;;;;;;;1.85;1.85;;;;;;;;;;4966931;29;20204;-73
2023/08/13 04:39:54;;;;;;;1.70;1.70;;;;;;;;;;4967597;29;20204;-74
2023/08/13 04:42:21;;;;;;;2.00;1.90;;;;;;;;;;4966089;29;20230;-74
2023/08/13 04:44:48;;;;;;;1.58;1.58;;;;;;;;;;4959238;29;20211;-74
2023/08/13 04:47:15;;;;;;;1.98;1.98;;;;;;;;;;4958940;29;20575;-74
2023/08/13 04:49:44;;;;;;;1.58;1.58;;;;;;;;;;4958714;29;20227;-75
2023/08/13 04:52:11;;;;;;;2.08;1.88;;;;;;;;;;4958949;29;20223;-73
2023/08/13 04:54:38;;;;;;;2.10;2.00;;;;;;;;;;4958888;29;20211;-73
2023/08/13 04:57:05;;;;;;;1.90;1.90;;;;;;;;;;4958818;29;20208;-73
2023/08/13 04:59:32;;;;;;;2.03;1.95;;;;;;;;;;4958773;29;20200;-73
2023/08/13 05:01:59;;;;;;;1.60;1.60;;;;;;;;;;4958618;29;20212;-73
2023/08/13 05:04:26;;;;;;;1.63;1.63;;;;;;;;;;4958804;29;20185;-73
2023/08/13 05:06:55;;;;;;;2.08;1.98;;;;;;;;;;4958655;29;20210;-73
2023/08/13 05:09:22;;;;;;;2.22;2.05;;;;;;;;;;4958793;29;20242;-73
2023/08/13 05:11:49;;;;;;;2.58;2.47;;;;;;;;;;4958253;29;20676;-71
2023/08/13 05:14:16;;;;;;;2.72;2.63;;;;;;;;;;4958495;29;20211;-71
2023/08/13 05:16:43;;;;;;;2.30;2.20;;;;;;;;;;4958168;29;20583;-71
2023/08/13 05:19:11;;;;;;;2.20;2.10;;;;;;;;;;4958447;29;20204;-71
2023/08/13 05:21:38;;;;;;;2.38;2.28;;;;;;;;;;4958389;29;20200;-71
2023/08/13 05:24:07;;;;;;;1.92;1.90;;;;;;;;;;4958429;29;20231;-71
2023/08/13 05:26:34;;;;;;;2.72;2.40;;;;;;;;;;4958369;29;20207;-72
2023/08/13 05:29:01;;;;;;;2.88;2.78;;;;;;;;;;4958174;29;20204;-72
2023/08/13 05:31:28;;;;;;;2.30;2.20;;;;;;;;;;4958244;29;20211;-71
2023/08/13 05:33:57;;;;;;;2.38;2.28;;;;;;;;;;4957863;29;20707;-72
2023/08/13 05:36:24;;;;;;;1.98;1.88;;;;;;;;;;4957841;28;20204;-72
2023/08/13 05:38:51;;;;;;;2.28;2.17;;;;;;;;;;4958104;29;20204;-72
2023/08/13 05:41:20;;;;;;;2.03;1.92;;;;;;;;;;4957800;29;20787;-71
2023/08/13 05:43:47;;;;;;;2.17;2.08;;;;;;;;;;4958181;29;20227;-71
2023/08/13 05:46:14;;;;;;;2.45;2.35;;;;;;;;;;4957948;29;20215;-71
2023/08/13 05:48:41;;;;;;;1.88;1.88;;;;;;;;;;4958714;29;20247;-71
2023/08/13 05:51:08;;;;;;;2.00;2.00;;;;;;;;;;4958353;29;20261;-71
2023/08/13 05:53:35;;;;;;;1.92;1.92;;;;;;;;;;4958025;29;20223;-71
2023/08/13 05:56:02;;;;;;;1.95;1.95;;;;;;;;;;4957995;29;20203;-72
2023/08/13 05:58:31;;;;;;;2.90;2.70;;;;;;;;;;4957833;29;20294;-72
2023/08/13 06:00:58;;;;;;;2.67;2.47;;;;;;;;;;4957807;29;20199;-71
2023/08/13 06:03:25;;;;;;;3.40;3.20;;;;;;;;;;4957404;29;20238;-70
2023/08/13 06:05:52;;;;;;;2.60;2.50;;;;;;;;;;4957847;29;20207;-70
2023/08/13 06:08:19;;;;;;;2.70;2.60;;;;;;;;;;4958345;29;20211;-70
2023/08/13 06:10:46;;;;;;;2.58;2.47;;;;;;;;;;4958902;29;20250;-70
2023/08/13 06:13:13;;;;;;;2.42;2.33;;;;;;;;;;4959629;29;20324;-70
2023/08/13 06:15:42;;;;;;;2.42;2.33;;;;;;;;;;4961367;29;20204;-70
2023/08/13 06:18:09;;;;;;;2.42;2.28;;;;;;;;;;4959694;29;20226;-70
2023/08/13 06:20:36;;;;;;;2.13;2.03;;;;;;;;;;4957892;29;20227;-71
2023/08/13 06:23:03;;;;;;;2.30;2.20;;;;;;;;;;4956967;29;20602;-69
2023/08/13 06:25:30;;;;;;;2.05;2.05;;;;;;;;;;4957368;29;20289;-69
2023/08/13 06:27:57;;;;;;;2.05;1.95;;;;;;;;;;4957194;29;20214;-69
2023/08/13 06:30:24;;;;;;;2.20;2.10;;;;;;;;;;4957127;29;20238;-69
2023/08/13 06:32:52;;;;;;;2.42;2.30;;;;;;;;;;4957129;29;20230;-69
2023/08/13 06:35:20;;;;;;;3.03;2.70;;;;;;;;;;4957172;29;20208;-69
2023/08/13 06:37:47;;;;;;;2.53;2.42;;;;;;;;;;4957078;29;20206;-70
2023/08/13 06:40:14;;;;;;;2.80;2.60;;;;;;;;;;4957026;29;20228;-68
2023/08/13 06:42:41;;;;;;;2.58;2.47;;;;;;;;;;4956769;29;20711;-68
2023/08/13 06:45:09;;;;;;;2.20;2.10;;;;;;;;;;4958464;29;20238;-71
2023/08/13 06:47:36;;;;;;;2.50;2.30;;;;;;;;;;4956429;28;20211;-71
2023/08/13 06:50:04;;;;;;;2.65;2.55;;;;;;;;;;4956843;29;20234;-71
2023/08/13 06:52:31;;;;;;;3.17;2.05;;;;;;;;;;4956871;29;20225;-71
2023/08/13 06:54:59;;;;;;;1.60;1.50;;;;;;;;;;4957706;29;20245;-71
2023/08/13 06:57:26;;;;;;;1.65;1.65;;;;;;;;;;4956422;29;20564;-71
2023/08/13 06:59:53;;;;;;;1.52;1.52;;;;;;;;;;4956734;29;20195;-71
2023/08/13 07:02:20;;;;;;;2.00;1.90;;;;;;;;;;4956412;29;20235;-71
2023/08/13 07:04:47;;;;;;;2.60;1.63;;;;;;;;;;4956618;29;20615;-69
2023/08/13 07:07:15;;;;;;;1.60;1.60;;;;;;;;;;4956519;29;20302;-70
2023/08/13 07:09:42;;;;;;;1.65;1.65;;;;;;;;;;4956449;29;20234;-70
2023/08/13 07:12:10;;;;;;;1.55;1.48;;;;;;;;;;4956367;29;20215;-70
2023/08/13 07:14:37;;;;;;;1.65;1.65;;;;;;;;;;4956444;29;20212;-70
2023/08/13 07:17:04;;;;;;;4.90;1.90;;;;;;;;;;4956142;29;20730;-70
2023/08/13 07:19:32;;;;;;;1.98;1.98;;;;;;;;;;4956373;29;20207;-70
2023/08/13 07:21:59;;;;;;;2.40;2.20;;;;;;;;;;4955991;29;20215;-70
2023/08/13 07:24:28;;;;;;;2.22;2.13;;;;;;;;;;4955875;29;20203;-70
2023/08/13 07:26:55;;;;;;;2.40;2.20;;;;;;;;;;4955914;29;20675;-70
2023/08/13 07:29:22;;;;;;;2.20;2.10;;;;;;;;;;4956148;29;20202;-76
2023/08/13 07:31:49;;;;;;;2.05;1.95;;;;;;;;;;4955679;29;20667;-71
2023/08/13 07:34:16;;;;;;;2.40;1.73;;;;;;;;;;4955709;29;20203;-71
2023/08/13 07:36:43;;;;;;;1.88;1.88;;;;;;;;;;4955917;29;20190;-71
